sensor_id;sensor_type;location;lat;lon;timestamp;P1;P2;P0
76784;PMS7003;66893;44.316;0.092;2023-10-13T00:01:54;11.25;11.00;8.00
76784;PMS7003;66893;44.316;0.092;2023-10-13T00:04:21;13.00;13.00;10.00
76784;PMS7003;66893;44.316;0.092;2023-10-13T00:06:47;13.25;11.75;8.00
76784;PMS7003;66893;44.316;0.092;2023-10-13T00:09:13;10.25;9.75;8.00
76784;PMS7003;66893;44.316;0.092;2023-10-13T00:11:41;12.50;12.25;8.25
76784;PMS7003;66893;44.316;0.092;2023-10-13T00:14:09;12.25;12.00;8.50
76784;PMS7003;66893;44.316;0.092;2023-10-13T00:16:36;15.00;12.00;9.25
76784;PMS7003;66893;44.316;0.092;2023-10-13T00:19:04;8.50;6.75;5.75
76784;PMS7003;66893;44.316;0.092;2023-10-13T00:21:31;12.00;12.00;8.75
76784;PMS7003;66893;44.316;0.092;2023-10-13T00:23:57;11.75;10.25;8.25
76784;PMS7003;66893;44.316;0.092;2023-10-13T00:26:26;14.25;11.25;7.00
76784;PMS7003;66893;44.316;0.092;2023-10-13T00:28:55;11.25;9.25;6.25
76784;PMS7003;66893;44.316;0.092;2023-10-13T00:31:37;12.50;12.50;8.50
76784;PMS7003;66893;44.316;0.092;2023-10-13T00:34:05;13.50;12.25;9.25
76784;PMS7003;66893;44.316;0.092;2023-10-13T00:36:46;9.00;9.00;7.00
76784;PMS7003;66893;44.316;0.092;2023-10-13T00:39:34;15.75;12.50;8.00
76784;PMS7003;66893;44.316;0.092;2023-10-13T00:42:02;12.25;11.75;9.50
76784;PMS7003;66893;44.316;0.092;2023-10-13T00:44:32;16.75;13.00;10.50
76784;PMS7003;66893;44.316;0.092;2023-10-13T00:47:08;10.25;9.75;7.00
76784;PMS7003;66893;44.316;0.092;2023-10-13T00:49:34;15.00;13.50;9.00
76784;PMS7003;66893;44.316;0.092;2023-10-13T00:52:05;11.75;11.75;8.50
76784;PMS7003;66893;44.316;0.092;2023-10-13T00:54:32;9.25;9.00;7.50
76784;PMS7003;66893;44.316;0.092;2023-10-13T00:57:01;12.75;11.50;8.50
76784;PMS7003;66893;44.316;0.092;2023-10-13T00:59:36;14.25;11.25;9.00
76784;PMS7003;66893;44.316;0.092;2023-10-13T01:02:02;11.25;9.75;8.00
76784;PMS7003;66893;44.316;0.092;2023-10-13T01:04:46;15.00;12.75;9.00
76784;PMS7003;66893;44.316;0.092;2023-10-13T01:07:12;12.00;11.75;8.25
76784;PMS7003;66893;44.316;0.092;2023-10-13T01:09:40;11.00;10.75;7.50
76784;PMS7003;66893;44.316;0.092;2023-10-13T01:12:12;12.00;11.50;8.00
76784;PMS7003;66893;44.316;0.092;2023-10-13T01:14:37;13.00;11.50;8.25
76784;PMS7003;66893;44.316;0.092;2023-10-13T01:17:03;15.00;11.75;8.50
76784;PMS7003;66893;44.316;0.092;2023-10-13T01:19:28;11.75;11.25;7.75
76784;PMS7003;66893;44.316;0.092;2023-10-13T01:21:54;10.25;9.25;7.25
76784;PMS7003;66893;44.316;0.092;2023-10-13T01:24:27;13.00;10.75;8.25
76784;PMS7003;66893;44.316;0.092;2023-10-13T01:26:56;11.50;10.00;7.50
76784;PMS7003;66893;44.316;0.092;2023-10-13T01:29:22;14.00;12.25;9.00
76784;PMS7003;66893;44.316;0.092;2023-10-13T01:31:51;10.75;10.75;8.50
76784;PMS7003;66893;44.316;0.092;2023-10-13T01:34:18;13.25;11.00;6.75
76784;PMS7003;66893;44.316;0.092;2023-10-13T01:36:50;12.75;12.50;9.25
76784;PMS7003;66893;44.316;0.092;2023-10-13T01:39:20;12.75;12.50;9.25
76784;PMS7003;66893;44.316;0.092;2023-10-13T01:41:47;14.00;11.50;8.00
76784;PMS7003;66893;44.316;0.092;2023-10-13T01:44:20;14.75;12.00;9.00
76784;PMS7003;66893;44.316;0.092;2023-10-13T01:46:49;13.25;13.00;9.00
76784;PMS7003;66893;44.316;0.092;2023-10-13T01:49:16;11.50;11.00;8.00
76784;PMS7003;66893;44.316;0.092;2023-10-13T01:51:41;13.75;13.00;8.50
76784;PMS7003;66893;44.316;0.092;2023-10-13T01:54:07;11.25;11.25;8.50
76784;PMS7003;66893;44.316;0.092;2023-10-13T01:56:37;17.25;11.75;8.00
76784;PMS7003;66893;44.316;0.092;2023-10-13T01:59:10;7.25;5.50;4.50
76784;PMS7003;66893;44.316;0.092;2023-10-13T02:01:44;13.75;9.00;6.00
76784;PMS7003;66893;44.316;0.092;2023-10-13T02:04:10;11.50;11.50;8.75
76784;PMS7003;66893;44.316;0.092;2023-10-13T02:06:35;15.00;13.50;9.00
76784;PMS7003;66893;44.316;0.092;2023-10-13T02:09:05;12.00;11.25;8.75
76784;PMS7003;66893;44.316;0.092;2023-10-13T02:11:41;10.25;10.00;7.25
76784;PMS7003;66893;44.316;0.092;2023-10-13T02:14:11;12.75;9.50;7.25
76784;PMS7003;66893;44.316;0.092;2023-10-13T02:16:40;14.25;11.25;9.50
76784;PMS7003;66893;44.316;0.092;2023-10-13T02:19:05;12.75;11.75;9.00
76784;PMS7003;66893;44.316;0.092;2023-10-13T02:21:33;13.25;11.50;8.25
76784;PMS7003;66893;44.316;0.092;2023-10-13T02:24:07;11.25;11.25;8.00
76784;PMS7003;66893;44.316;0.092;2023-10-13T02:26:38;11.25;11.25;9.00
76784;PMS7003;66893;44.316;0.092;2023-10-13T02:29:05;10.75;10.50;8.00
76784;PMS7003;66893;44.316;0.092;2023-10-13T02:31:36;11.75;10.50;7.50
76784;PMS7003;66893;44.316;0.092;2023-10-13T02:34:03;13.50;13.25;8.75
76784;PMS7003;66893;44.316;0.092;2023-10-13T02:36:37;13.50;11.75;9.25
76784;PMS7003;66893;44.316;0.092;2023-10-13T02:39:14;15.25;13.00;8.75
76784;PMS7003;66893;44.316;0.092;2023-10-13T02:41:41;11.50;9.25;7.00
76784;PMS7003;66893;44.316;0.092;2023-10-13T02:44:12;12.00;10.75;8.00
76784;PMS7003;66893;44.316;0.092;2023-10-13T02:46:52;11.00;10.75;7.50
76784;PMS7003;66893;44.316;0.092;2023-10-13T02:49:21;12.00;11.75;9.00
76784;PMS7003;66893;44.316;0.092;2023-10-13T02:51:51;13.00;12.75;9.25
76784;PMS7003;66893;44.316;0.092;2023-10-13T02:54:20;14.00;12.50;9.00
76784;PMS7003;66893;44.316;0.092;2023-10-13T02:56:46;13.75;11.25;7.75
76784;PMS7003;66893;44.316;0.092;2023-10-13T02:59:29;13.50;11.75;8.75
76784;PMS7003;66893;44.316;0.092;2023-10-13T03:02:20;13.75;10.25;8.75
76784;PMS7003;66893;44.316;0.092;2023-10-13T03:04:50;11.50;10.50;8.00
76784;PMS7003;66893;44.316;0.092;2023-10-13T03:07:17;13.00;11.00;8.00
76784;PMS7003;66893;44.316;0.092;2023-10-13T03:09:51;10.50;10.50;8.75
76784;PMS7003;66893;44.316;0.092;2023-10-13T03:12:17;13.50;12.50;8.25
76784;PMS7003;66893;44.316;0.092;2023-10-13T03:14:46;14.00;13.50;8.50
76784;PMS7003;66893;44.316;0.092;2023-10-13T03:17:19;14.25;11.75;8.00
76784;PMS7003;66893;44.316;0.092;2023-10-13T03:19:53;13.75;12.50;8.00
76784;PMS7003;66893;44.316;0.092;2023-10-13T03:22:20;12.75;12.50;9.00
76784;PMS7003;66893;44.316;0.092;2023-10-13T03:24:55;13.25;11.50;8.50
76784;PMS7003;66893;44.316;0.092;2023-10-13T03:27:25;10.50;10.00;7.50
76784;PMS7003;66893;44.316;0.092;2023-10-13T03:30:04;15.50;13.25;9.00
76784;PMS7003;66893;44.316;0.092;2023-10-13T03:32:35;14.00;12.25;8.00
76784;PMS7003;66893;44.316;0.092;2023-10-13T03:35:07;12.00;11.25;8.50
76784;PMS7003;66893;44.316;0.092;2023-10-13T03:38:02;16.00;11.75;7.75
76784;PMS7003;66893;44.316;0.092;2023-10-13T03:40:28;14.25;10.75;7.50
76784;PMS7003;66893;44.316;0.092;2023-10-13T03:42:54;12.00;11.50;8.00
76784;PMS7003;66893;44.316;0.092;2023-10-13T03:45:38;14.00;14.00;10.50
76784;PMS7003;66893;44.316;0.092;2023-10-13T03:48:16;10.75;10.75;7.50
76784;PMS7003;66893;44.316;0.092;2023-10-13T03:51:01;12.75;11.25;8.25
76784;PMS7003;66893;44.316;0.092;2023-10-13T03:53:40;12.00;11.25;7.75
76784;PMS7003;66893;44.316;0.092;2023-10-13T03:56:19;13.00;11.75;8.75
76784;PMS7003;66893;44.316;0.092;2023-10-13T03:58:51;11.50;11.00;8.50
76784;PMS7003;66893;44.316;0.092;2023-10-13T04:01:19;13.75;12.00;8.25
76784;PMS7003;66893;44.316;0.092;2023-10-13T04:03:56;11.50;11.00;8.50
76784;PMS7003;66893;44.316;0.092;2023-10-13T04:06:28;12.00;12.00;9.25
76784;PMS7003;66893;44.316;0.092;2023-10-13T04:09:18;11.50;10.00;7.25
76784;PMS7003;66893;44.316;0.092;2023-10-13T04:12:00;10.25;7.50;6.00
76784;PMS7003;66893;44.316;0.092;2023-10-13T04:14:27;13.50;13.25;10.00
76784;PMS7003;66893;44.316;0.092;2023-10-13T04:17:12;13.00;12.25;7.75
76784;PMS7003;66893;44.316;0.092;2023-10-13T04:19:41;10.75;10.25;7.25
76784;PMS7003;66893;44.316;0.092;2023-10-13T04:22:27;13.75;12.75;8.75
76784;PMS7003;66893;44.316;0.092;2023-10-13T04:25:11;13.50;11.50;9.25
76784;PMS7003;66893;44.316;0.092;2023-10-13T04:27:55;13.25;11.75;8.75
76784;PMS7003;66893;44.316;0.092;2023-10-13T04:33:21;14.00;11.75;8.25
76784;PMS7003;66893;44.316;0.092;2023-10-13T04:36:06;13.00;12.00;9.50
76784;PMS7003;66893;44.316;0.092;2023-10-13T04:38:51;11.75;11.75;8.75
76784;PMS7003;66893;44.316;0.092;2023-10-13T04:41:33;11.00;11.00;8.25
76784;PMS7003;66893;44.316;0.092;2023-10-13T04:44:23;13.25;12.50;8.00
76784;PMS7003;66893;44.316;0.092;2023-10-13T04:47:09;11.50;11.50;8.25
76784;PMS7003;66893;44.316;0.092;2023-10-13T04:49:41;11.25;11.25;7.00
76784;PMS7003;66893;44.316;0.092;2023-10-13T04:52:13;14.00;10.50;8.50
76784;PMS7003;66893;44.316;0.092;2023-10-13T04:55:00;11.00;11.00;9.00
76784;PMS7003;66893;44.316;0.092;2023-10-13T04:57:35;13.25;12.25;9.75
76784;PMS7003;66893;44.316;0.092;2023-10-13T05:00:12;12.25;11.75;9.25
76784;PMS7003;66893;44.316;0.092;2023-10-13T05:02:47;12.75;11.00;9.25
76784;PMS7003;66893;44.316;0.092;2023-10-13T05:05:31;12.50;10.75;8.00
76784;PMS7003;66893;44.316;0.092;2023-10-13T05:08:12;14.75;11.25;8.25
76784;PMS7003;66893;44.316;0.092;2023-10-13T05:10:56;13.50;12.50;9.50
76784;PMS7003;66893;44.316;0.092;2023-10-13T05:14:00;11.75;10.25;7.75
76784;PMS7003;66893;44.316;0.092;2023-10-13T05:16:44;14.25;11.50;9.25
76784;PMS7003;66893;44.316;0.092;2023-10-13T05:19:28;11.50;10.50;8.50
76784;PMS7003;66893;44.316;0.092;2023-10-13T05:22:12;17.00;12.75;10.00
76784;PMS7003;66893;44.316;0.092;2023-10-13T05:24:56;12.50;12.50;10.50
76784;PMS7003;66893;44.316;0.092;2023-10-13T05:27:40;14.25;12.75;8.25
76784;PMS7003;66893;44.316;0.092;2023-10-13T05:30:25;14.50;13.00;10.50
76784;PMS7003;66893;44.316;0.092;2023-10-13T05:33:09;12.25;12.25;9.75
76784;PMS7003;66893;44.316;0.092;2023-10-13T05:35:53;14.75;11.25;8.75
76784;PMS7003;66893;44.316;0.092;2023-10-13T05:38:37;12.75;12.75;10.00
76784;PMS7003;66893;44.316;0.092;2023-10-13T05:41:21;19.25;12.75;9.50
76784;PMS7003;66893;44.316;0.092;2023-10-13T05:44:05;9.50;8.50;7.00
76784;PMS7003;66893;44.316;0.092;2023-10-13T05:46:49;10.75;10.75;9.00
76784;PMS7003;66893;44.316;0.092;2023-10-13T05:49:26;14.25;12.00;9.75
76784;PMS7003;66893;44.316;0.092;2023-10-13T05:52:05;15.00;13.00;9.25
76784;PMS7003;66893;44.316;0.092;2023-10-13T05:54:44;11.50;11.50;9.50
76784;PMS7003;66893;44.316;0.092;2023-10-13T05:57:44;14.75;14.00;10.25
76784;PMS7003;66893;44.316;0.092;2023-10-13T06:00:10;15.25;13.75;8.00
76784;PMS7003;66893;44.316;0.092;2023-10-13T06:03:11;15.25;14.25;11.00
76784;PMS7003;66893;44.316;0.092;2023-10-13T06:05:55;16.50;11.75;10.00
76784;PMS7003;66893;44.316;0.092;2023-10-13T06:08:39;14.50;13.75;10.25
76784;PMS7003;66893;44.316;0.092;2023-10-13T06:11:22;16.00;13.75;10.50
76784;PMS7003;66893;44.316;0.092;2023-10-13T06:14:06;13.75;13.50;10.00
76784;PMS7003;66893;44.316;0.092;2023-10-13T06:16:50;18.50;15.00;10.50
76784;PMS7003;66893;44.316;0.092;2023-10-13T06:19:34;17.00;12.50;9.25
76784;PMS7003;66893;44.316;0.092;2023-10-13T06:22:18;16.25;14.25;10.25
76784;PMS7003;66893;44.316;0.092;2023-10-13T06:25:02;16.50;13.00;8.75
76784;PMS7003;66893;44.316;0.092;2023-10-13T06:27:46;12.50;11.25;9.25
76784;PMS7003;66893;44.316;0.092;2023-10-13T06:30:30;14.00;13.50;10.00
76784;PMS7003;66893;44.316;0.092;2023-10-13T06:32:58;14.50;13.75;9.25
76784;PMS7003;66893;44.316;0.092;2023-10-13T06:35:23;12.75;12.00;9.25
76784;PMS7003;66893;44.316;0.092;2023-10-13T06:37:49;15.50;11.25;8.75
76784;PMS7003;66893;44.316;0.092;2023-10-13T06:40:18;11.50;11.50;9.50
76784;PMS7003;66893;44.316;0.092;2023-10-13T06:42:50;12.75;10.75;9.00
76784;PMS7003;66893;44.316;0.092;2023-10-13T06:45:15;13.75;13.50;10.25
76784;PMS7003;66893;44.316;0.092;2023-10-13T06:47:45;15.25;13.50;10.00
76784;PMS7003;66893;44.316;0.092;2023-10-13T06:50:15;16.25;15.25;10.25
76784;PMS7003;66893;44.316;0.092;2023-10-13T06:52:49;16.75;16.50;11.50
76784;PMS7003;66893;44.316;0.092;2023-10-13T06:55:15;20.25;17.50;11.50
76784;PMS7003;66893;44.316;0.092;2023-10-13T06:57:49;18.00;15.00;11.25
76784;PMS7003;66893;44.316;0.092;2023-10-13T07:00:16;18.25;13.25;10.00
76784;PMS7003;66893;44.316;0.092;2023-10-13T07:02:53;16.50;15.50;11.50
76784;PMS7003;66893;44.316;0.092;2023-10-13T07:05:18;17.50;14.75;11.75
76784;PMS7003;66893;44.316;0.092;2023-10-13T07:07:44;18.00;13.25;9.75
76784;PMS7003;66893;44.316;0.092;2023-10-13T07:10:10;18.75;17.50;12.75
76784;PMS7003;66893;44.316;0.092;2023-10-13T07:12:39;20.00;17.25;13.25
76784;PMS7003;66893;44.316;0.092;2023-10-13T07:15:14;22.50;17.00;11.25
76784;PMS7003;66893;44.316;0.092;2023-10-13T07:17:43;18.50;17.50;12.00
76784;PMS7003;66893;44.316;0.092;2023-10-13T07:20:10;18.25;17.00;11.00
76784;PMS7003;66893;44.316;0.092;2023-10-13T07:22:58;20.50;16.00;13.00
76784;PMS7003;66893;44.316;0.092;2023-10-13T07:25:31;20.50;18.00;12.50
76784;PMS7003;66893;44.316;0.092;2023-10-13T07:28:01;26.00;18.25;12.25
76784;PMS7003;66893;44.316;0.092;2023-10-13T07:30:29;18.00;15.75;10.75
76784;PMS7003;66893;44.316;0.092;2023-10-13T07:32:56;21.50;19.00;13.00
76784;PMS7003;66893;44.316;0.092;2023-10-13T07:35:24;15.50;14.25;11.25
76784;PMS7003;66893;44.316;0.092;2023-10-13T07:37:52;18.25;14.50;10.25
76784;PMS7003;66893;44.316;0.092;2023-10-13T07:40:19;16.25;14.75;10.25
76784;PMS7003;66893;44.316;0.092;2023-10-13T07:42:51;18.50;17.00;11.75
76784;PMS7003;66893;44.316;0.092;2023-10-13T07:45:26;19.75;15.75;11.00
76784;PMS7003;66893;44.316;0.092;2023-10-13T07:48:01;17.25;17.25;10.50
76784;PMS7003;66893;44.316;0.092;2023-10-13T07:50:59;14.50;13.25;9.25
76784;PMS7003;66893;44.316;0.092;2023-10-13T07:53:29;19.75;19.75;12.00
76784;PMS7003;66893;44.316;0.092;2023-10-13T07:55:59;21.25;16.50;11.25
76784;PMS7003;66893;44.316;0.092;2023-10-13T07:58:29;17.50;16.50;11.75
76784;PMS7003;66893;44.316;0.092;2023-10-13T08:00:56;14.00;14.00;10.25
76784;PMS7003;66893;44.316;0.092;2023-10-13T08:03:25;17.25;16.25;11.50
76784;PMS7003;66893;44.316;0.092;2023-10-13T08:06:00;16.50;16.50;11.00
76784;PMS7003;66893;44.316;0.092;2023-10-13T08:08:37;13.25;12.75;9.00
76784;PMS7003;66893;44.316;0.092;2023-10-13T08:11:04;16.75;14.00;9.75
76784;PMS7003;66893;44.316;0.092;2023-10-13T08:13:36;14.25;14.25;10.50
76784;PMS7003;66893;44.316;0.092;2023-10-13T08:16:02;18.00;14.50;10.25
76784;PMS7003;66893;44.316;0.092;2023-10-13T08:18:46;17.25;16.25;11.00
76784;PMS7003;66893;44.316;0.092;2023-10-13T08:21:15;17.00;14.25;10.25
76784;PMS7003;66893;44.316;0.092;2023-10-13T08:23:48;14.25;12.75;10.25
76784;PMS7003;66893;44.316;0.092;2023-10-13T08:26:22;18.75;15.25;10.50
76784;PMS7003;66893;44.316;0.092;2023-10-13T08:29:01;14.75;13.50;10.00
76784;PMS7003;66893;44.316;0.092;2023-10-13T08:34:34;15.25;14.75;11.00
76784;PMS7003;66893;44.316;0.092;2023-10-13T08:37:12;20.50;15.50;10.50
76784;PMS7003;66893;44.316;0.092;2023-10-13T08:39:45;18.00;16.25;11.50
76784;PMS7003;66893;44.316;0.092;2023-10-13T08:42:42;15.00;14.25;9.25
76784;PMS7003;66893;44.316;0.092;2023-10-13T08:45:12;19.00;14.00;10.75
76784;PMS7003;66893;44.316;0.092;2023-10-13T08:47:56;17.25;14.50;10.00
76784;PMS7003;66893;44.316;0.092;2023-10-13T08:50:51;15.00;14.25;10.25
76784;PMS7003;66893;44.316;0.092;2023-10-13T08:53:23;16.00;14.50;11.00
76784;PMS7003;66893;44.316;0.092;2023-10-13T08:56:07;18.25;15.00;10.75
76784;PMS7003;66893;44.316;0.092;2023-10-13T08:58:57;13.50;11.00;8.25
76784;PMS7003;66893;44.316;0.092;2023-10-13T09:01:30;18.25;15.50;10.00
76784;PMS7003;66893;44.316;0.092;2023-10-13T09:04:14;18.25;14.50;9.75
76784;PMS7003;66893;44.316;0.092;2023-10-13T09:09:32;13.75;13.75;10.00
76784;PMS7003;66893;44.316;0.092;2023-10-13T09:12:11;14.50;14.25;10.75
76784;PMS7003;66893;44.316;0.092;2023-10-13T09:14:42;16.00;14.00;8.50
76784;PMS7003;66893;44.316;0.092;2023-10-13T09:17:22;17.50;12.75;10.50
76784;PMS7003;66893;44.316;0.092;2023-10-13T09:20:01;18.50;15.25;10.25
76784;PMS7003;66893;44.316;0.092;2023-10-13T09:25:26;15.75;14.00;10.00
76784;PMS7003;66893;44.316;0.092;2023-10-13T09:28:00;19.00;16.00;11.50
76784;PMS7003;66893;44.316;0.092;2023-10-13T09:30:45;17.25;15.75;11.50
76784;PMS7003;66893;44.316;0.092;2023-10-13T09:33:11;15.50;14.00;11.00
76784;PMS7003;66893;44.316;0.092;2023-10-13T09:35:45;13.75;12.50;8.75
76784;PMS7003;66893;44.316;0.092;2023-10-13T09:38:17;16.25;13.25;9.75
76784;PMS7003;66893;44.316;0.092;2023-10-13T09:40:43;16.00;13.50;9.75
76784;PMS7003;66893;44.316;0.092;2023-10-13T09:43:18;14.75;12.75;9.00
76784;PMS7003;66893;44.316;0.092;2023-10-13T09:45:46;13.50;12.00;9.50
76784;PMS7003;66893;44.316;0.092;2023-10-13T09:48:37;15.25;11.50;9.75
76784;PMS7003;66893;44.316;0.092;2023-10-13T09:51:06;13.00;11.25;7.75
76784;PMS7003;66893;44.316;0.092;2023-10-13T09:53:37;10.50;8.25;7.00
76784;PMS7003;66893;44.316;0.092;2023-10-13T09:56:20;15.25;13.50;10.00
76784;PMS7003;66893;44.316;0.092;2023-10-13T09:59:03;14.50;13.25;8.00
76784;PMS7003;66893;44.316;0.092;2023-10-13T10:01:39;12.25;11.25;9.25
76784;PMS7003;66893;44.316;0.092;2023-10-13T10:04:16;15.50;12.25;8.00
76784;PMS7003;66893;44.316;0.092;2023-10-13T10:06:58;13.50;12.00;9.25
76784;PMS7003;66893;44.316;0.092;2023-10-13T10:12:19;12.50;11.50;8.50
76784;PMS7003;66893;44.316;0.092;2023-10-13T10:17:53;15.50;12.25;9.00
76784;PMS7003;66893;44.316;0.092;2023-10-13T10:20:27;13.75;11.75;8.25
76784;PMS7003;66893;44.316;0.092;2023-10-13T10:23:27;13.25;13.25;9.50
76784;PMS7003;66893;44.316;0.092;2023-10-13T10:26:13;16.00;13.50;10.00
76784;PMS7003;66893;44.316;0.092;2023-10-13T10:28:46;14.75;12.00;9.00
76784;PMS7003;66893;44.316;0.092;2023-10-13T10:31:12;15.75;11.25;9.50
76784;PMS7003;66893;44.316;0.092;2023-10-13T10:33:47;13.25;11.50;8.25
76784;PMS7003;66893;44.316;0.092;2023-10-13T10:36:15;18.25;15.00;10.00
76784;PMS7003;66893;44.316;0.092;2023-10-13T10:38:52;13.00;11.50;7.50
76784;PMS7003;66893;44.316;0.092;2023-10-13T10:41:27;11.50;11.50;8.25
76784;PMS7003;66893;44.316;0.092;2023-10-13T10:44:16;15.75;13.50;10.00
76784;PMS7003;66893;44.316;0.092;2023-10-13T10:46:48;15.50;13.50;9.50
76784;PMS7003;66893;44.316;0.092;2023-10-13T10:49:20;11.00;10.00;7.00
76784;PMS7003;66893;44.316;0.092;2023-10-13T10:51:58;14.00;11.00;8.50
76784;PMS7003;66893;44.316;0.092;2023-10-13T10:54:29;14.50;10.50;7.25
76784;PMS7003;66893;44.316;0.092;2023-10-13T10:56:57;13.00;12.00;8.75
76784;PMS7003;66893;44.316;0.092;2023-10-13T10:59:38;8.25;7.75;6.00
76784;PMS7003;66893;44.316;0.092;2023-10-13T11:02:04;12.25;12.25;8.50
76784;PMS7003;66893;44.316;0.092;2023-10-13T11:04:32;13.75;12.75;9.25
76784;PMS7003;66893;44.316;0.092;2023-10-13T11:07:06;16.75;14.75;9.50
76784;PMS7003;66893;44.316;0.092;2023-10-13T11:09:34;13.50;11.00;8.25
76784;PMS7003;66893;44.316;0.092;2023-10-13T11:12:11;11.50;9.75;7.75
76784;PMS7003;66893;44.316;0.092;2023-10-13T11:15:07;12.25;10.25;8.00
76784;PMS7003;66893;44.316;0.092;2023-10-13T11:17:39;13.25;11.25;8.00
76784;PMS7003;66893;44.316;0.092;2023-10-13T11:20:16;13.50;12.00;9.25
76784;PMS7003;66893;44.316;0.092;2023-10-13T11:22:50;13.25;12.50;9.00
76784;PMS7003;66893;44.316;0.092;2023-10-13T11:25:35;11.25;10.00;6.75
76784;PMS7003;66893;44.316;0.092;2023-10-13T11:30:42;12.75;9.50;7.25
76784;PMS7003;66893;44.316;0.092;2023-10-13T11:33:14;10.25;10.00;8.25
76784;PMS7003;66893;44.316;0.092;2023-10-13T11:35:46;12.25;10.25;7.75
76784;PMS7003;66893;44.316;0.092;2023-10-13T11:38:32;16.50;12.00;8.25
76784;PMS7003;66893;44.316;0.092;2023-10-13T11:41:16;8.25;8.25;6.00
76784;PMS7003;66893;44.316;0.092;2023-10-13T11:43:47;11.50;11.50;8.25
76784;PMS7003;66893;44.316;0.092;2023-10-13T11:46:17;13.50;11.50;8.25
76784;PMS7003;66893;44.316;0.092;2023-10-13T11:49:11;10.75;6.75;5.25
76784;PMS7003;66893;44.316;0.092;2023-10-13T11:54:16;10.50;9.50;7.00
76784;PMS7003;66893;44.316;0.092;2023-10-13T11:56:43;13.00;10.00;8.25
76784;PMS7003;66893;44.316;0.092;2023-10-13T11:59:12;13.00;11.75;7.50
76784;PMS7003;66893;44.316;0.092;2023-10-13T12:01:46;15.25;10.25;8.00
76784;PMS7003;66893;44.316;0.092;2023-10-13T12:04:32;10.75;9.50;7.00
76784;PMS7003;66893;44.316;0.092;2023-10-13T12:07:17;15.50;11.50;8.00
76784;PMS7003;66893;44.316;0.092;2023-10-13T12:09:46;10.00;10.00;7.50
76784;PMS7003;66893;44.316;0.092;2023-10-13T12:12:19;9.00;8.25;6.50
76784;PMS7003;66893;44.316;0.092;2023-10-13T12:14:45;9.25;9.25;7.00
76784;PMS7003;66893;44.316;0.092;2023-10-13T12:20:04;11.00;9.25;7.00
76784;PMS7003;66893;44.316;0.092;2023-10-13T12:22:35;14.50;11.75;7.25
76784;PMS7003;66893;44.316;0.092;2023-10-13T12:25:03;10.00;10.00;8.00
76784;PMS7003;66893;44.316;0.092;2023-10-13T12:27:30;11.75;9.00;6.50
76784;PMS7003;66893;44.316;0.092;2023-10-13T12:30:11;12.25;9.75;7.00
76784;PMS7003;66893;44.316;0.092;2023-10-13T12:32:39;8.50;7.00;5.25
76784;PMS7003;66893;44.316;0.092;2023-10-13T12:35:10;10.50;9.00;7.00
76784;PMS7003;66893;44.316;0.092;2023-10-13T12:37:35;10.25;9.50;8.00
76784;PMS7003;66893;44.316;0.092;2023-10-13T12:40:01;11.75;9.25;7.00
76784;PMS7003;66893;44.316;0.092;2023-10-13T12:42:45;8.00;7.50;6.25
76784;PMS7003;66893;44.316;0.092;2023-10-13T12:45:29;9.50;9.50;7.00
76784;PMS7003;66893;44.316;0.092;2023-10-13T12:48:16;9.00;9.00;6.00
76784;PMS7003;66893;44.316;0.092;2023-10-13T12:51:01;9.25;8.00;6.75
76784;PMS7003;66893;44.316;0.092;2023-10-13T12:53:48;9.25;9.25;6.50
76784;PMS7003;66893;44.316;0.092;2023-10-13T12:56:15;7.25;7.25;6.00
76784;PMS7003;66893;44.316;0.092;2023-10-13T12:58:41;9.25;6.75;5.00
76784;PMS7003;66893;44.316;0.092;2023-10-13T13:01:07;9.75;7.00;5.50
76784;PMS7003;66893;44.316;0.092;2023-10-13T13:03:33;9.25;7.00;5.00
76784;PMS7003;66893;44.316;0.092;2023-10-13T13:05:59;7.25;7.25;5.50
76784;PMS7003;66893;44.316;0.092;2023-10-13T13:08:28;6.50;6.00;4.25
76784;PMS7003;66893;44.316;0.092;2023-10-13T13:11:00;8.25;8.25;6.25
76784;PMS7003;66893;44.316;0.092;2023-10-13T13:13:26;8.25;8.00;6.25
76784;PMS7003;66893;44.316;0.092;2023-10-13T13:15:52;7.00;6.00;4.00
76784;PMS7003;66893;44.316;0.092;2023-10-13T13:18:19;8.00;8.00;6.00
76784;PMS7003;66893;44.316;0.092;2023-10-13T13:20:45;6.25;4.50;4.25
76784;PMS7003;66893;44.316;0.092;2023-10-13T13:23:20;9.00;8.00;6.00
76784;PMS7003;66893;44.316;0.092;2023-10-13T13:25:47;8.00;8.00;5.75
76784;PMS7003;66893;44.316;0.092;2023-10-13T13:28:13;10.25;7.50;6.00
76784;PMS7003;66893;44.316;0.092;2023-10-13T13:30:43;8.00;7.50;5.25
76784;PMS7003;66893;44.316;0.092;2023-10-13T13:33:15;8.75;8.75;6.50
76784;PMS7003;66893;44.316;0.092;2023-10-13T13:35:41;9.00;6.25;6.00
76784;PMS7003;66893;44.316;0.092;2023-10-13T13:38:14;10.00;7.50;5.50
76784;PMS7003;66893;44.316;0.092;2023-10-13T13:40:47;9.50;7.25;5.00
76784;PMS7003;66893;44.316;0.092;2023-10-13T13:43:19;8.50;8.50;6.25
76784;PMS7003;66893;44.316;0.092;2023-10-13T13:46:04;8.50;7.25;5.25
76784;PMS7003;66893;44.316;0.092;2023-10-13T13:48:34;10.50;9.50;7.00
76784;PMS7003;66893;44.316;0.092;2023-10-13T13:51:07;8.00;5.75;3.50
76784;PMS7003;66893;44.316;0.092;2023-10-13T13:53:51;8.75;8.00;6.00
76784;PMS7003;66893;44.316;0.092;2023-10-13T13:56:18;5.50;5.00;3.25
76784;PMS7003;66893;44.316;0.092;2023-10-13T13:58:44;6.75;6.00;4.00
76784;PMS7003;66893;44.316;0.092;2023-10-13T14:01:11;7.75;7.75;6.25
76784;PMS7003;66893;44.316;0.092;2023-10-13T14:03:38;6.50;6.50;5.00
76784;PMS7003;66893;44.316;0.092;2023-10-13T14:06:10;7.75;6.50;5.00
76784;PMS7003;66893;44.316;0.092;2023-10-13T14:08:57;10.00;9.00;6.00
76784;PMS7003;66893;44.316;0.092;2023-10-13T14:11:58;9.25;8.00;6.75
76784;PMS7003;66893;44.316;0.092;2023-10-13T14:14:42;9.50;9.50;7.50
76784;PMS7003;66893;44.316;0.092;2023-10-13T14:17:20;9.50;8.25;5.75
76784;PMS7003;66893;44.316;0.092;2023-10-13T14:19:51;6.50;6.00;5.00
76784;PMS7003;66893;44.316;0.092;2023-10-13T14:22:16;9.00;8.00;6.00
76784;PMS7003;66893;44.316;0.092;2023-10-13T14:24:42;10.00;8.75;7.25
76784;PMS7003;66893;44.316;0.092;2023-10-13T14:27:16;10.50;9.50;7.00
76784;PMS7003;66893;44.316;0.092;2023-10-13T14:29:47;11.00;11.00;8.00
76784;PMS7003;66893;44.316;0.092;2023-10-13T14:32:18;8.50;8.50;7.00
76784;PMS7003;66893;44.316;0.092;2023-10-13T14:34:47;9.00;8.25;6.75
76784;PMS7003;66893;44.316;0.092;2023-10-13T14:37:19;8.00;8.00;7.00
76784;PMS7003;66893;44.316;0.092;2023-10-13T14:39:51;4.50;4.50;3.50
76784;PMS7003;66893;44.316;0.092;2023-10-13T14:42:22;9.00;8.00;5.75
76784;PMS7003;66893;44.316;0.092;2023-10-13T14:44:49;13.00;9.00;7.00
76784;PMS7003;66893;44.316;0.092;2023-10-13T14:47:20;8.00;7.50;5.00
76784;PMS7003;66893;44.316;0.092;2023-10-13T14:49:50;7.50;6.75;5.25
76784;PMS7003;66893;44.316;0.092;2023-10-13T14:52:26;9.50;8.25;6.25
76784;PMS7003;66893;44.316;0.092;2023-10-13T14:54:52;5.25;5.25;5.00
76784;PMS7003;66893;44.316;0.092;2023-10-13T14:57:21;8.00;7.50;6.00
76784;PMS7003;66893;44.316;0.092;2023-10-13T14:59:50;11.50;9.25;7.25
76784;PMS7003;66893;44.316;0.092;2023-10-13T15:02:16;12.00;10.00;7.00
76784;PMS7003;66893;44.316;0.092;2023-10-13T15:04:42;12.75;9.00;7.00